To NAV CANADA Home Page Login to a new session Search on AWWS site Disclaimer Vers la page française équivalente Tips FAQ What's new on the site To the Forecasts and Observations / NOTAM section To "File a Flight Plan" website Publications and other links Update of the User's profile FIC Telephone Numbers My Weather Data Folder Route Weather Data Regional Weather Data Local Weather Data To the Forecasts and Observations / NOTAM section
Request Generated 03/19/2019 at 23:06:18 UTC . Weather information available at that time is displayed.

METAR/TAF

CAMPBELL RIVER/BC    

METAR CYBL 192300Z 09007KT 30SM BKN250 16/00 A3003 RMK CI5 SLP174 DENSITY ALT 500FT=
METAR CYBL 192200Z 08007KT 030V110 30SM SCT250 16/00 A3005 RMK CI3 SLP179 DENSITY ALT 400FT=
METAR CYBL 192100Z 07006KT 30SM FEW250 16/M00 A3006 RMK CI2 SLP185 DENSITY ALT 400FT=

TAF CYBL 191838Z 1919/2004 VRB03KT P6SM SKC
BECMG 1920/1922 10006KT
RMK NXT FCST BY 200100Z=
Your time UTC time
Weather data provided by Environment Canada and NAV CANADA